sensor_id;sensor_type;location;lat;lon;timestamp;pressure;altitude;pressure_sealevel;temperature;humidity
36692;BME280;22678;52.052;4.242;2023-02-28T00:00:41;103265.91;;;2.95;72.57
36692;BME280;22678;52.052;4.242;2023-02-28T00:03:06;103287.63;;;2.96;72.54
36692;BME280;22678;52.052;4.242;2023-02-28T00:05:32;103282.50;;;2.97;72.70
36692;BME280;22678;52.052;4.242;2023-02-28T00:07:57;103271.88;;;2.94;72.92
36692;BME280;22678;52.052;4.242;2023-02-28T00:10:25;103262.50;;;2.96;72.88
36692;BME280;22678;52.052;4.242;2023-02-28T00:12:52;103279.28;;;3.02;72.78
36692;BME280;22678;52.052;4.242;2023-02-28T00:15:18;103268.69;;;2.98;73.19
36692;BME280;22678;52.052;4.242;2023-02-28T00:17:44;103273.88;;;2.98;73.10
36692;BME280;22678;52.052;4.242;2023-02-28T00:20:10;103278.47;;;3.03;73.54
36692;BME280;22678;52.052;4.242;2023-02-28T00:22:42;103276.97;;;3.06;73.40
36692;BME280;22678;52.052;4.242;2023-02-28T00:25:09;103276.97;;;3.06;73.42
36692;BME280;22678;52.052;4.242;2023-02-28T00:27:35;103277.06;;;3.08;73.35
36692;BME280;22678;52.052;4.242;2023-02-28T00:30:01;103272.47;;;3.04;73.87
36692;BME280;22678;52.052;4.242;2023-02-28T00:32:27;103284.22;;;3.12;73.82
36692;BME280;22678;52.052;4.242;2023-02-28T00:34:52;103274.25;;;3.05;74.08
36692;BME280;22678;52.052;4.242;2023-02-28T00:37:17;103274.56;;;3.09;74.16
36692;BME280;22678;52.052;4.242;2023-02-28T00:39:43;103276.44;;;3.12;73.90
36692;BME280;22678;52.052;4.242;2023-02-28T00:42:09;103278.25;;;3.13;74.30
36692;BME280;22678;52.052;4.242;2023-02-28T00:44:34;103280.22;;;3.17;74.48
36692;BME280;22678;52.052;4.242;2023-02-28T00:47:00;103271.41;;;3.15;74.62
36692;BME280;22678;52.052;4.242;2023-02-28T00:49:28;103270.44;;;3.13;74.28
36692;BME280;22678;52.052;4.242;2023-02-28T00:51:55;103288.31;;;3.22;74.52
36692;BME280;22678;52.052;4.242;2023-02-28T00:54:22;103285.81;;;3.23;74.64
36692;BME280;22678;52.052;4.242;2023-02-28T00:56:49;103275.41;;;3.23;74.49
36692;BME280;22678;52.052;4.242;2023-02-28T00:59:16;103283.28;;;3.25;74.79
36692;BME280;22678;52.052;4.242;2023-02-28T01:01:43;103275.91;;;3.18;74.84
36692;BME280;22678;52.052;4.242;2023-02-28T01:04:09;103271.81;;;3.21;74.87
36692;BME280;22678;52.052;4.242;2023-02-28T01:06:35;103268.22;;;3.19;74.94
36692;BME280;22678;52.052;4.242;2023-02-28T01:09:02;103270.19;;;3.23;75.02
36692;BME280;22678;52.052;4.242;2023-02-28T01:11:27;103266.44;;;3.18;75.07
36692;BME280;22678;52.052;4.242;2023-02-28T01:13:52;103277.22;;;3.24;75.16
36692;BME280;22678;52.052;4.242;2023-02-28T01:16:18;103284.19;;;3.25;75.37
36692;BME280;22678;52.052;4.242;2023-02-28T01:18:44;103291.38;;;3.29;75.29
36692;BME280;22678;52.052;4.242;2023-02-28T01:21:13;103277.22;;;3.24;75.51
36692;BME280;22678;52.052;4.242;2023-02-28T01:23:39;103281.88;;;3.30;75.25
36692;BME280;22678;52.052;4.242;2023-02-28T01:26:10;103266.63;;;3.21;75.73
36692;BME280;22678;52.052;4.242;2023-02-28T01:28:36;103270.91;;;3.21;75.70
36692;BME280;22678;52.052;4.242;2023-02-28T01:31:02;103285.47;;;3.32;75.92
36692;BME280;22678;52.052;4.242;2023-02-28T01:33:27;103254.22;;;3.17;75.69
36692;BME280;22678;52.052;4.242;2023-02-28T01:36:01;103243.47;;;3.11;76.01
36692;BME280;22678;52.052;4.242;2023-02-28T01:38:26;103284.59;;;3.31;76.08
36692;BME280;22678;52.052;4.242;2023-02-28T01:40:52;103275.41;;;3.23;75.99
36692;BME280;22678;52.052;4.242;2023-02-28T01:43:28;103286.34;;;3.32;76.33
36692;BME280;22678;52.052;4.242;2023-02-28T01:45:55;103291.56;;;3.32;76.15
36692;BME280;22678;52.052;4.242;2023-02-28T01:48:26;103275.75;;;3.29;76.46
36692;BME280;22678;52.052;4.242;2023-02-28T01:50:53;103276.59;;;3.28;76.17
36692;BME280;22678;52.052;4.242;2023-02-28T01:53:24;103268.56;;;3.25;76.52
36692;BME280;22678;52.052;4.242;2023-02-28T01:55:52;103267.00;;;3.27;76.28
36692;BME280;22678;52.052;4.242;2023-02-28T01:58:19;103263.59;;;3.28;76.40
36692;BME280;22678;52.052;4.242;2023-02-28T02:00:45;103268.16;;;3.32;76.63
36692;BME280;22678;52.052;4.242;2023-02-28T02:03:13;103256.94;;;3.33;76.90
36692;BME280;22678;52.052;4.242;2023-02-28T02:05:40;103247.06;;;3.28;76.72
36692;BME280;22678;52.052;4.242;2023-02-28T02:08:15;103263.97;;;3.35;77.02
36692;BME280;22678;52.052;4.242;2023-02-28T02:10:54;103256.06;;;3.33;76.77
36692;BME280;22678;52.052;4.242;2023-02-28T02:18:51;103252.53;;;3.32;77.37
36692;BME280;22678;52.052;4.242;2023-02-28T02:21:40;103257.13;;;3.37;77.25
36692;BME280;22678;52.052;4.242;2023-02-28T02:35:20;103245.94;;;3.38;77.78
36692;BME280;22678;52.052;4.242;2023-02-28T02:40:45;103233.53;;;3.33;77.81
36692;BME280;22678;52.052;4.242;2023-02-28T02:46:35;103229.13;;;3.32;77.80
36692;BME280;22678;52.052;4.242;2023-02-28T02:49:06;103224.19;;;3.37;78.27
36692;BME280;22678;52.052;4.242;2023-02-28T02:51:34;103223.22;;;3.35;78.38
36692;BME280;22678;52.052;4.242;2023-02-28T02:54:11;103233.09;;;3.41;78.65
36692;BME280;22678;52.052;4.242;2023-02-28T02:56:42;103234.72;;;3.39;78.35
36692;BME280;22678;52.052;4.242;2023-02-28T02:59:11;103218.91;;;3.36;78.75
36692;BME280;22678;52.052;4.242;2023-02-28T03:01:40;103226.00;;;3.38;78.84
36692;BME280;22678;52.052;4.242;2023-02-28T03:04:09;103241.19;;;3.45;79.02
36692;BME280;22678;52.052;4.242;2023-02-28T03:06:35;103228.88;;;3.43;79.02
36692;BME280;22678;52.052;4.242;2023-02-28T03:09:02;103233.47;;;3.47;79.21
36692;BME280;22678;52.052;4.242;2023-02-28T03:11:28;103238.66;;;3.47;79.08
36692;BME280;22678;52.052;4.242;2023-02-28T03:16:59;103235.28;;;3.48;79.37
36692;BME280;22678;52.052;4.242;2023-02-28T03:25:53;103240.66;;;3.51;79.84
36692;BME280;22678;52.052;4.242;2023-02-28T03:33:19;103231.03;;;3.50;79.87
36692;BME280;22678;52.052;4.242;2023-02-28T03:35:54;103223.31;;;3.51;79.93
36692;BME280;22678;52.052;4.242;2023-02-28T03:38:41;103232.06;;;3.52;80.30
36692;BME280;22678;52.052;4.242;2023-02-28T03:41:20;103227.19;;;3.58;80.34
36692;BME280;22678;52.052;4.242;2023-02-28T03:43:54;103221.91;;;3.57;80.41
36692;BME280;22678;52.052;4.242;2023-02-28T03:46:24;103215.78;;;3.56;80.60
36692;BME280;22678;52.052;4.242;2023-02-28T03:48:59;103230.97;;;3.63;80.38
36692;BME280;22678;52.052;4.242;2023-02-28T03:51:28;103222.19;;;3.61;80.70
36692;BME280;22678;52.052;4.242;2023-02-28T03:53:58;103224.16;;;3.65;80.55
36692;BME280;22678;52.052;4.242;2023-02-28T03:56:48;103230.34;;;3.67;80.62
36692;BME280;22678;52.052;4.242;2023-02-28T04:01:59;103227.13;;;3.72;80.76
36692;BME280;22678;52.052;4.242;2023-02-28T04:04:24;103219.94;;;3.67;80.93
36692;BME280;22678;52.052;4.242;2023-02-28T04:06:51;103214.63;;;3.66;80.90
36692;BME280;22678;52.052;4.242;2023-02-28T04:09:17;103223.72;;;3.73;80.78
36692;BME280;22678;52.052;4.242;2023-02-28T04:11:50;103223.97;;;3.77;80.93
36692;BME280;22678;52.052;4.242;2023-02-28T04:14:18;103223.06;;;3.77;80.69
36692;BME280;22678;52.052;4.242;2023-02-28T04:16:45;103241.47;;;3.80;80.97
36692;BME280;22678;52.052;4.242;2023-02-28T04:19:11;103228.25;;;3.77;80.79
36692;BME280;22678;52.052;4.242;2023-02-28T04:21:45;103239.84;;;3.82;80.87
36692;BME280;22678;52.052;4.242;2023-02-28T04:24:14;103227.53;;;3.79;80.56
36692;BME280;22678;52.052;4.242;2023-02-28T04:26:41;103239.06;;;3.83;80.61
36692;BME280;22678;52.052;4.242;2023-02-28T04:29:09;103245.22;;;3.85;80.57
36692;BME280;22678;52.052;4.242;2023-02-28T04:31:35;103231.88;;;3.79;80.82
36692;BME280;22678;52.052;4.242;2023-02-28T04:34:00;103244.25;;;3.83;80.53
36692;BME280;22678;52.052;4.242;2023-02-28T04:36:26;103245.31;;;3.86;80.43
36692;BME280;22678;52.052;4.242;2023-02-28T04:38:51;103237.25;;;3.82;80.48
36692;BME280;22678;52.052;4.242;2023-02-28T04:41:17;103235.63;;;3.84;80.66
36692;BME280;22678;52.052;4.242;2023-02-28T04:43:42;103233.69;;;3.80;80.46
36692;BME280;22678;52.052;4.242;2023-02-28T04:46:08;103244.44;;;3.86;80.55
36692;BME280;22678;52.052;4.242;2023-02-28T04:48:38;103257.44;;;3.86;80.61
36692;BME280;22678;52.052;4.242;2023-02-28T04:51:06;103233.47;;;3.77;80.72
36692;BME280;22678;52.052;4.242;2023-02-28T04:53:32;103247.84;;;3.85;80.79
36692;BME280;22678;52.052;4.242;2023-02-28T04:55:58;103247.84;;;3.85;81.02
36692;BME280;22678;52.052;4.242;2023-02-28T04:58:23;103244.09;;;3.80;81.16
36692;BME280;22678;52.052;4.242;2023-02-28T05:00:50;103249.47;;;3.83;80.85
36692;BME280;22678;52.052;4.242;2023-02-28T05:03:15;103245.69;;;3.78;80.99
36692;BME280;22678;52.052;4.242;2023-02-28T05:05:41;103240.47;;;3.78;81.36
36692;BME280;22678;52.052;4.242;2023-02-28T05:08:06;103244.09;;;3.80;81.79
36692;BME280;22678;52.052;4.242;2023-02-28T05:10:31;103228.09;;;3.74;81.39
36692;BME280;22678;52.052;4.242;2023-02-28T05:12:57;103239.84;;;3.82;81.59
36692;BME280;22678;52.052;4.242;2023-02-28T05:15:24;103225.56;;;3.75;81.46
36692;BME280;22678;52.052;4.242;2023-02-28T05:17:49;103233.47;;;3.77;81.47
36692;BME280;22678;52.052;4.242;2023-02-28T05:20:15;103240.47;;;3.78;81.84
36692;BME280;22678;52.052;4.242;2023-02-28T05:22:41;103240.75;;;3.82;81.82
36692;BME280;22678;52.052;4.242;2023-02-28T05:25:10;103241.56;;;3.81;81.94
36692;BME280;22678;52.052;4.242;2023-02-28T05:27:37;103234.28;;;3.76;82.26
36692;BME280;22678;52.052;4.242;2023-02-28T05:30:03;103237.06;;;3.79;82.41
36692;BME280;22678;52.052;4.242;2023-02-28T05:32:29;103238.66;;;3.77;82.39
36692;BME280;22678;52.052;4.242;2023-02-28T05:34:54;103231.44;;;3.71;82.02
36692;BME280;22678;52.052;4.242;2023-02-28T05:37:20;103226.94;;;3.68;82.17
36692;BME280;22678;52.052;4.242;2023-02-28T05:39:46;103226.66;;;3.64;82.34
36692;BME280;22678;52.052;4.242;2023-02-28T05:42:11;103232.06;;;3.67;82.60
36692;BME280;22678;52.052;4.242;2023-02-28T05:44:36;103225.94;;;3.66;82.21
36692;BME280;22678;52.052;4.242;2023-02-28T05:47:02;103233.03;;;3.69;82.30
36692;BME280;22678;52.052;4.242;2023-02-28T05:49:27;103225.94;;;3.66;82.38
36692;BME280;22678;52.052;4.242;2023-02-28T05:51:53;103223.06;;;3.62;82.22
36692;BME280;22678;52.052;4.242;2023-02-28T05:54:18;103227.91;;;3.71;82.45
36692;BME280;22678;52.052;4.242;2023-02-28T05:56:43;103237.53;;;3.72;81.98
36692;BME280;22678;52.052;4.242;2023-02-28T05:59:11;103245.31;;;3.72;82.08
36692;BME280;22678;52.052;4.242;2023-02-28T06:01:42;103241.75;;;3.70;81.82
36692;BME280;22678;52.052;4.242;2023-02-28T06:04:14;103227.56;;;3.64;81.97
36692;BME280;22678;52.052;4.242;2023-02-28T06:06:43;103228.53;;;3.66;82.36
36692;BME280;22678;52.052;4.242;2023-02-28T06:09:10;103234.75;;;3.68;81.88
36692;BME280;22678;52.052;4.242;2023-02-28T06:11:35;103232.94;;;3.67;81.83
36692;BME280;22678;52.052;4.242;2023-02-28T06:14:01;103237.16;;;3.65;82.18
36692;BME280;22678;52.052;4.242;2023-02-28T06:16:28;103243.78;;;3.60;82.05
36692;BME280;22678;52.052;4.242;2023-02-28T06:18:54;103247.22;;;3.59;81.73
36692;BME280;22678;52.052;4.242;2023-02-28T06:21:22;103250.72;;;3.60;81.90
36692;BME280;22678;52.052;4.242;2023-02-28T06:23:48;103240.03;;;3.55;82.00
36692;BME280;22678;52.052;4.242;2023-02-28T06:26:13;103254.03;;;3.57;81.98
36692;BME280;22678;52.052;4.242;2023-02-28T06:28:38;103242.91;;;3.60;81.70
36692;BME280;22678;52.052;4.242;2023-02-28T06:31:13;103247.22;;;3.59;81.49
36692;BME280;22678;52.052;4.242;2023-02-28T06:33:39;103237.59;;;3.58;81.95
36692;BME280;22678;52.052;4.242;2023-02-28T06:36:06;103239.03;;;3.53;81.59
36692;BME280;22678;52.052;4.242;2023-02-28T06:38:32;103247.00;;;3.56;81.57
36692;BME280;22678;52.052;4.242;2023-02-28T06:40:59;103238.84;;;3.50;81.54
36692;BME280;22678;52.052;4.242;2023-02-28T06:43:27;103243.34;;;3.53;81.53
36692;BME280;22678;52.052;4.242;2023-02-28T06:45:58;103253.75;;;3.53;81.51
36692;BME280;22678;52.052;4.242;2023-02-28T06:48:25;103254.47;;;3.50;81.23
36692;BME280;22678;52.052;4.242;2023-02-28T06:50:50;103247.19;;;3.44;81.25
36692;BME280;22678;52.052;4.242;2023-02-28T06:53:16;103248.97;;;3.45;81.43
36692;BME280;22678;52.052;4.242;2023-02-28T06:55:41;103235.53;;;3.38;81.24
36692;BME280;22678;52.052;4.242;2023-02-28T06:58:07;103251.41;;;3.42;81.17
36692;BME280;22678;52.052;4.242;2023-02-28T07:00:44;103253.38;;;3.46;81.34
36692;BME280;22678;52.052;4.242;2023-02-28T07:03:11;103243.41;;;3.39;80.80
36692;BME280;22678;52.052;4.242;2023-02-28T07:05:37;103246.91;;;3.40;81.18
36692;BME280;22678;52.052;4.242;2023-02-28T07:08:04;103265.94;;;3.39;80.97
36692;BME280;22678;52.052;4.242;2023-02-28T07:10:31;103259.91;;;3.40;81.19
36692;BME280;22678;52.052;4.242;2023-02-28T07:12:56;103255.16;;;3.32;80.86
36692;BME280;22678;52.052;4.242;2023-02-28T07:15:22;103267.53;;;3.37;81.08
36692;BME280;22678;52.052;4.242;2023-02-28T07:17:47;103258.75;;;3.35;81.21
36692;BME280;22678;52.052;4.242;2023-02-28T07:20:12;103265.72;;;3.36;80.94
36692;BME280;22678;52.052;4.242;2023-02-28T07:22:38;103265.53;;;3.32;80.76
36692;BME280;22678;52.052;4.242;2023-02-28T07:25:04;103263.78;;;3.31;80.95
36692;BME280;22678;52.052;4.242;2023-02-28T07:27:29;103269.44;;;3.39;80.80
36692;BME280;22678;52.052;4.242;2023-02-28T07:29:55;103268.25;;;3.34;81.08
36692;BME280;22678;52.052;4.242;2023-02-28T07:32:21;103267.34;;;3.33;80.98
36692;BME280;22678;52.052;4.242;2023-02-28T07:34:47;103263.59;;;3.28;81.19
36692;BME280;22678;52.052;4.242;2023-02-28T07:37:12;103277.75;;;3.33;81.09
36692;BME280;22678;52.052;4.242;2023-02-28T07:39:37;103283.84;;;3.34;81.00
36692;BME280;22678;52.052;4.242;2023-02-28T07:42:06;103286.53;;;3.36;81.10
36692;BME280;22678;52.052;4.242;2023-02-28T07:44:35;103286.34;;;3.32;81.10
36692;BME280;22678;52.052;4.242;2023-02-28T07:47:05;103291.19;;;3.26;81.08
36692;BME280;22678;52.052;4.242;2023-02-28T07:49:31;103273.94;;;3.13;81.45
36692;BME280;22678;52.052;4.242;2023-02-28T07:51:57;103280.75;;;3.11;81.22
36692;BME280;22678;52.052;4.242;2023-02-28T07:54:22;103289.25;;;3.09;81.41
36692;BME280;22678;52.052;4.242;2023-02-28T07:56:47;103294.06;;;3.03;81.84
36692;BME280;22678;52.052;4.242;2023-02-28T07:59:13;103297.88;;;2.94;81.80
36692;BME280;22678;52.052;4.242;2023-02-28T08:01:38;103292.13;;;2.85;81.42
36692;BME280;22678;52.052;4.242;2023-02-28T08:04:03;103294.44;;;2.80;81.76
36692;BME280;22678;52.052;4.242;2023-02-28T08:06:28;103293.13;;;2.74;81.90
36692;BME280;22678;52.052;4.242;2023-02-28T08:08:54;103301.06;;;2.75;82.12
36692;BME280;22678;52.052;4.242;2023-02-28T08:11:21;103291.06;;;2.68;82.08
36692;BME280;22678;52.052;4.242;2023-02-28T08:13:46;103289.34;;;2.69;82.26
36692;BME280;22678;52.052;4.242;2023-02-28T08:16:12;103292.34;;;2.61;82.43
36692;BME280;22678;52.052;4.242;2023-02-28T08:18:46;103302.75;;;2.61;82.46
36692;BME280;22678;52.052;4.242;2023-02-28T08:21:11;103284.28;;;2.57;82.46
36692;BME280;22678;52.052;4.242;2023-02-28T08:23:37;103293.59;;;2.53;82.52
36692;BME280;22678;52.052;4.242;2023-02-28T08:26:03;103303.66;;;2.49;83.04
36692;BME280;22678;52.052;4.242;2023-02-28T08:28:28;103290.88;;;2.38;83.12
36692;BME280;22678;52.052;4.242;2023-02-28T08:30:54;103306.34;;;2.50;83.12
36692;BME280;22678;52.052;4.242;2023-02-28T08:33:19;103301.78;;;2.46;83.37
36692;BME280;22678;52.052;4.242;2023-02-28T08:35:45;103299.69;;;2.40;83.35
36692;BME280;22678;52.052;4.242;2023-02-28T08:38:10;103304.19;;;2.43;83.50
36692;BME280;22678;52.052;4.242;2023-02-28T08:40:35;103308.38;;;2.41;83.45
36692;BME280;22678;52.052;4.242;2023-02-28T08:43:01;103291.06;;;2.28;84.12
36692;BME280;22678;52.052;4.242;2023-02-28T08:45:26;103291.41;;;2.33;84.25
36692;BME280;22678;52.052;4.242;2023-02-28T08:47:54;103293.78;;;2.30;84.36
36692;BME280;22678;52.052;4.242;2023-02-28T08:50:19;103316.75;;;2.37;84.60
36692;BME280;22678;52.052;4.242;2023-02-28T08:52:45;103282.78;;;2.20;84.34
36692;BME280;22678;52.052;4.242;2023-02-28T08:55:10;103307.56;;;2.28;84.83
36692;BME280;22678;52.052;4.242;2023-02-28T08:57:35;103284.69;;;2.23;84.54
36692;BME280;22678;52.052;4.242;2023-02-28T09:00:02;103286.69;;;2.27;85.05
36692;BME280;22678;52.052;4.242;2023-02-28T09:02:31;103304.16;;;2.30;84.93
36692;BME280;22678;52.052;4.242;2023-02-28T09:04:57;103297.00;;;2.25;84.94
36692;BME280;22678;52.052;4.242;2023-02-28T09:07:23;103303.97;;;2.26;84.70
36692;BME280;22678;52.052;4.242;2023-02-28T09:09:48;103300.38;;;2.24;85.16
36692;BME280;22678;52.052;4.242;2023-02-28T09:12:27;103314.16;;;2.23;85.29
36692;BME280;22678;52.052;4.242;2023-02-28T09:14:53;103319.13;;;2.20;85.48
36692;BME280;22678;52.052;4.242;2023-02-28T09:17:19;103305.56;;;2.11;85.08
36692;BME280;22678;52.052;4.242;2023-02-28T09:19:44;103299.59;;;2.12;85.66
36692;BME280;22678;52.052;4.242;2023-02-28T09:22:10;103278.59;;;2.09;85.81
36692;BME280;22678;52.052;4.242;2023-02-28T09:24:37;103297.69;;;2.23;85.81
36692;BME280;22678;52.052;4.242;2023-02-28T09:27:02;103320.94;;;2.35;86.15
36692;BME280;22678;52.052;4.242;2023-02-28T09:29:30;103306.16;;;2.34;86.14
36692;BME280;22678;52.052;4.242;2023-02-28T09:31:56;103304.97;;;2.42;86.05
36692;BME280;22678;52.052;4.242;2023-02-28T09:34:24;103309.97;;;2.52;86.12
36692;BME280;22678;52.052;4.242;2023-02-28T09:36:49;103296.97;;;2.52;86.32
36692;BME280;22678;52.052;4.242;2023-02-28T09:39:18;103299.16;;;2.59;86.53
36692;BME280;22678;52.052;4.242;2023-02-28T09:41:48;103304.94;;;2.69;86.44
36692;BME280;22678;52.052;4.242;2023-02-28T09:44:31;103300.13;;;2.75;86.18
36692;BME280;22678;52.052;4.242;2023-02-28T09:49:40;103303.53;;;2.87;86.49
36692;BME280;22678;52.052;4.242;2023-02-28T09:52:15;103287.09;;;2.88;86.54
36692;BME280;22678;52.052;4.242;2023-02-28T09:54:42;103275.41;;;2.95;86.26
36692;BME280;22678;52.052;4.242;2023-02-28T10:02:53;103305.19;;;3.28;86.06
36692;BME280;22678;52.052;4.242;2023-02-28T10:08:16;103305.66;;;3.36;85.87
36692;BME280;22678;52.052;4.242;2023-02-28T10:10:56;103299.34;;;3.32;85.79
36692;BME280;22678;52.052;4.242;2023-02-28T10:13:36;103304.13;;;3.40;86.02
36692;BME280;22678;52.052;4.242;2023-02-28T10:16:18;103302.53;;;3.42;85.78
36692;BME280;22678;52.052;4.242;2023-02-28T10:18:50;103300.56;;;3.38;85.81
36692;BME280;22678;52.052;4.242;2023-02-28T10:21:23;103310.53;;;3.45;85.28
36692;BME280;22678;52.052;4.242;2023-02-28T10:23:53;103308.13;;;3.48;85.18
36692;BME280;22678;52.052;4.242;2023-02-28T10:26:26;103298.59;;;3.48;85.20
36692;BME280;22678;52.052;4.242;2023-02-28T10:28:53;103291.06;;;3.53;84.88
36692;BME280;22678;52.052;4.242;2023-02-28T10:31:19;103295.38;;;3.67;85.08
36692;BME280;22678;52.052;4.242;2023-02-28T10:33:45;103297.38;;;3.72;84.54
36692;BME280;22678;52.052;4.242;2023-02-28T10:36:16;103292.72;;;3.81;84.26
36692;BME280;22678;52.052;4.242;2023-02-28T10:38:43;103298.47;;;3.90;84.12
36692;BME280;22678;52.052;4.242;2023-02-28T10:41:31;103299.19;;;4.02;83.55
36692;BME280;22678;52.052;4.242;2023-02-28T10:44:21;103292.88;;;3.99;82.81
36692;BME280;22678;52.052;4.242;2023-02-28T10:46:48;103286.06;;;4.01;82.48
36692;BME280;22678;52.052;4.242;2023-02-28T10:49:17;103300.72;;;4.14;81.88
36692;BME280;22678;52.052;4.242;2023-02-28T10:51:45;103284.88;;;4.11;81.17
36692;BME280;22678;52.052;4.242;2023-02-28T10:54:38;103294.66;;;4.15;79.90
36692;BME280;22678;52.052;4.242;2023-02-28T10:57:18;103300.72;;;4.14;78.06
36692;BME280;22678;52.052;4.242;2023-02-28T10:59:44;103288.16;;;4.07;77.93
36692;BME280;22678;52.052;4.242;2023-02-28T11:02:35;103297.81;;;4.09;76.94
36692;BME280;22678;52.052;4.242;2023-02-28T11:05:02;103288.59;;;3.99;75.24
36692;BME280;22678;52.052;4.242;2023-02-28T11:07:53;103290.28;;;3.99;74.05
36692;BME280;22678;52.052;4.242;2023-02-28T11:10:20;103284.00;;;3.95;73.83
36692;BME280;22678;52.052;4.242;2023-02-28T11:12:47;103291.53;;;4.06;73.76
36692;BME280;22678;52.052;4.242;2023-02-28T11:15:27;103292.69;;;4.11;72.27
36692;BME280;22678;52.052;4.242;2023-02-28T11:18:00;103282.47;;;4.14;71.60
36692;BME280;22678;52.052;4.242;2023-02-28T11:20:29;103288.03;;;4.20;70.84
36692;BME280;22678;52.052;4.242;2023-02-28T11:22:57;103285.88;;;4.28;69.70
36692;BME280;22678;52.052;4.242;2023-02-28T11:25:33;103285.81;;;4.43;70.28
36692;BME280;22678;52.052;4.242;2023-02-28T11:28:01;103272.03;;;4.60;68.78
36692;BME280;22678;52.052;4.242;2023-02-28T11:30:40;103283.03;;;4.86;68.01
36692;BME280;22678;52.052;4.242;2023-02-28T11:35:48;103273.56;;;5.21;65.10
36692;BME280;22678;52.052;4.242;2023-02-28T11:38:14;103263.44;;;5.43;63.98
36692;BME280;22678;52.052;4.242;2023-02-28T11:52:29;103266.66;;;6.43;58.90
36692;BME280;22678;52.052;4.242;2023-02-28T12:19:38;103235.34;;;8.04;52.14
36692;BME280;22678;52.052;4.242;2023-02-28T12:22:09;103232.75;;;8.04;52.63
36692;BME280;22678;52.052;4.242;2023-02-28T12:27:06;103236.75;;;7.96;51.66
36692;BME280;22678;52.052;4.242;2023-02-28T12:29:45;103234.34;;;7.79;51.56
36692;BME280;22678;52.052;4.242;2023-02-28T12:32:18;103228.44;;;7.64;52.08
36692;BME280;22678;52.052;4.242;2023-02-28T12:34:50;103226.25;;;7.53;52.35
36692;BME280;22678;52.052;4.242;2023-02-28T12:37:34;103211.00;;;7.43;51.89
36692;BME280;22678;52.052;4.242;2023-02-28T12:40:09;103213.81;;;7.48;52.19
36692;BME280;22678;52.052;4.242;2023-02-28T12:42:39;103214.78;;;7.50;52.73
36692;BME280;22678;52.052;4.242;2023-02-28T12:45:31;103208.59;;;7.69;52.64
36692;BME280;22678;52.052;4.242;2023-02-28T12:48:06;103206.03;;;7.92;52.33
36692;BME280;22678;52.052;4.242;2023-02-28T12:50:33;103196.88;;;8.03;50.93
36692;BME280;22678;52.052;4.242;2023-02-28T12:53:00;103214.88;;;8.16;49.35
36692;BME280;22678;52.052;4.242;2023-02-28T13:09:14;103186.34;;;8.93;47.00
36692;BME280;22678;52.052;4.242;2023-02-28T13:11:42;103200.81;;;8.82;46.45
36692;BME280;22678;52.052;4.242;2023-02-28T13:17:01;103197.50;;;8.64;47.26
36692;BME280;22678;52.052;4.242;2023-02-28T13:19:30;103183.00;;;8.73;46.72
36692;BME280;22678;52.052;4.242;2023-02-28T13:21:57;103169.88;;;8.73;45.79
36692;BME280;22678;52.052;4.242;2023-02-28T13:24:50;103182.09;;;8.73;45.87
36692;BME280;22678;52.052;4.242;2023-02-28T13:30:02;103178.75;;;8.77;44.80
36692;BME280;22678;52.052;4.242;2023-02-28T13:32:46;103166.72;;;8.82;45.33
36692;BME280;22678;52.052;4.242;2023-02-28T13:35:37;103167.13;;;8.94;45.37
36692;BME280;22678;52.052;4.242;2023-02-28T13:38:15;103161.38;;;9.05;44.63
36692;BME280;22678;52.052;4.242;2023-02-28T13:40:41;103162.44;;;9.10;44.40
36692;BME280;22678;52.052;4.242;2023-02-28T13:43:08;103142.13;;;9.04;42.55
36692;BME280;22678;52.052;4.242;2023-02-28T13:45:33;103139.44;;;9.03;43.50
36692;BME280;22678;52.052;4.242;2023-02-28T13:48:19;103153.72;;;9.11;43.55
36692;BME280;22678;52.052;4.242;2023-02-28T13:50:44;103144.50;;;9.22;43.50
36692;BME280;22678;52.052;4.242;2023-02-28T14:01:14;103149.63;;;9.45;39.45
36692;BME280;22678;52.052;4.242;2023-02-28T14:06:38;103138.66;;;9.31;40.83
36692;BME280;22678;52.052;4.242;2023-02-28T14:11:44;103125.53;;;9.31;40.77
36692;BME280;22678;52.052;4.242;2023-02-28T14:17:05;103109.19;;;9.14;39.62
36692;BME280;22678;52.052;4.242;2023-02-28T14:19:35;103141.97;;;9.25;39.05
36692;BME280;22678;52.052;4.242;2023-02-28T14:27:47;103128.94;;;9.28;41.24
36692;BME280;22678;52.052;4.242;2023-02-28T14:33:17;103139.28;;;9.50;40.48
36692;BME280;22678;52.052;4.242;2023-02-28T14:36:14;103138.22;;;9.44;40.14
36692;BME280;22678;52.052;4.242;2023-02-28T14:38:51;103122.22;;;9.37;40.62
36692;BME280;22678;52.052;4.242;2023-02-28T14:43:59;103123.97;;;9.38;40.33
36692;BME280;22678;52.052;4.242;2023-02-28T14:46:39;103124.94;;;9.40;39.94
36692;BME280;22678;52.052;4.242;2023-02-28T14:49:06;103132.00;;;9.41;39.65
36692;BME280;22678;52.052;4.242;2023-02-28T14:51:37;103121.16;;;9.32;39.67
36692;BME280;22678;52.052;4.242;2023-02-28T14:54:03;103121.78;;;9.24;40.05
36692;BME280;22678;52.052;4.242;2023-02-28T14:56:37;103137.53;;;9.24;39.72
36692;BME280;22678;52.052;4.242;2023-02-28T14:59:04;103129.56;;;9.21;39.79
36692;BME280;22678;52.052;4.242;2023-02-28T15:01:30;103106.06;;;8.99;39.84
36692;BME280;22678;52.052;4.242;2023-02-28T15:04:04;103106.06;;;8.99;39.58
36692;BME280;22678;52.052;4.242;2023-02-28T15:06:31;103122.84;;;9.04;40.02
36692;BME280;22678;52.052;4.242;2023-02-28T15:09:16;103124.88;;;9.12;40.59
36692;BME280;22678;52.052;4.242;2023-02-28T15:11:46;103132.88;;;9.16;40.50
36692;BME280;22678;52.052;4.242;2023-02-28T15:14:22;103124.69;;;9.06;40.22
36692;BME280;22678;52.052;4.242;2023-02-28T15:16:52;103128.53;;;9.16;40.75
36692;BME280;22678;52.052;4.242;2023-02-28T15:19:26;103130.25;;;9.16;40.57
36692;BME280;22678;52.052;4.242;2023-02-28T15:22:16;103111.41;;;9.02;40.23
36692;BME280;22678;52.052;4.242;2023-02-28T15:24:46;103125.59;;;9.07;39.76
36692;BME280;22678;52.052;4.242;2023-02-28T15:27:22;103118.25;;;8.97;39.59
36692;BME280;22678;52.052;4.242;2023-02-28T15:29:51;103137.66;;;9.02;40.03